メインページ
METAR-TAF:

METAR-TAF

空港 :

Comox, ブリティッシュコロンビア州, カナダ

緯度: 49-43N, 経度: 124-54W, 海抜: 24m

現時点の気象観測

当レポートは29分前の22:33(UTC)に作成
の風 11kt、最大17ktの突風を伴う
気温 10°C
湿度 71%
気圧 1024 hPa
視程: 24.1km
高度3500ftの千切れ雲あり
高度6000ftの曇り
小雨

METAR: CYQQ 132233Z 17011G17KT 15SM -RA BKN035 OVC060 10/05 A3024 RMK SC6SC2 SLP242

時間: 15:02 (23:02 UTC)

予報

当レポートは5時間23分前の17:39(UTC)に作成
予報は13日の 18時(UTC)から 14日の 18時(UTC)まで有効
南東の風 8kt
視程: 10km
高度4000ftの雲はほとんどない
高度10000ftの千切れ雲あり
高度24000ftの曇り
13日の 1900時(UTC)から
南東の風 12kt、最大22ktの突風を伴う
視程: 10km
高度4000ftの雲は散在している
高度8000ftの曇り
13日の 19時(UTC)から 13日の 21時(UTC)まで一時的に
視程: 10km
高度4000ftの曇り
小雨
13日の 2100時(UTC)から
南東の風 20kt、最大30ktの突風を伴う
視程: 10km
高度1500ftの雲は散在している
高度3000ftの曇り
小雨
13日の 21時(UTC)から 14日の 16時(UTC)まで一時的に
視程: 6.4km
高度1500ftの曇り
小雨, 靄
14日の 1600時(UTC)から
南東の風 15kt、最大25ktの突風を伴う
視程: 10km
高度1500ftの雲は散在している
高度4000ftの千切れ雲あり

TAF: CYQQ 131739Z 1318/1418 14008KT P6SM FEW040 BKN100 OVC240 FM131900 14012G22KT P6SM SCT040 OVC080 TEMPO 1319/1321 P6SM -RA OVC040 FM132100 14020G30KT P6SM -RA SCT015 OVC030 TEMPO 1321/1416 4SM -RA BR OVC015 FM141600 14015G25KT P6SM SCT015 BKN040 RMK NXT FCST BY 140000Z

4,000以上の空港の気象観測と天気予報(METAR報とTAF報)

利用可能な観測所は地図上に黄色い丸と赤い丸で示す。

丸の上にカーソルを重ねると観測所名を参照できる。

次にクリックすると気象観測と天気予報を参照できる。

マップの切り替え:黒色「×」印の緑ボタンをクリックして拡大、「-」印の緑ボタンをクリックして縮小、緑色の三角印をクリックして隣りの地図に切り替え


METAR-TAF: